Time;durP1;ratioP1;P1;durP2;ratioP2;P2;SDS_P1;SDS_P2;PMS_P1;PMS_P2;Temp;Humidity;BMP_temperature;BMP_pressure;BME280_temperature;BME280_humidity;BME280_pressure;Samples;Min_cycle;Max_cycle;Signal;HPM_P1;HPM_P2
2022/08/27 00:01:28;;;;;;;37.17;8.13;;;;;;;;;;10303393;28;20083;-66
2022/08/27 00:06:27;;;;;;;29.15;6.82;;;;;;;;;;10301621;28;20052;-66
2022/08/27 00:11:25;;;;;;;34.95;8.15;;;;;;;;;;10299475;28;20067;-66
2022/08/27 00:16:25;;;;;;;38.20;7.93;;;;;;;;;;10305591;28;20158;-66
2022/08/27 00:21:25;;;;;;;31.95;6.82;;;;;;;;;;10308242;28;20080;-66
2022/08/27 00:26:24;;;;;;;44.25;7.10;;;;;;;;;;10308067;28;20064;-66
2022/08/27 00:31:22;;;;;;;42.97;8.35;;;;;;;;;;10290405;28;20540;-65
2022/08/27 00:36:26;;;;;;;30.88;7.95;;;;;;;;;;10307615;28;20041;-66
2022/08/27 00:41:24;;;;;;;33.28;7.35;;;;;;;;;;10308273;28;20076;-65
2022/08/27 00:46:24;;;;;;;34.85;6.97;;;;;;;;;;10306862;28;20123;-65
2022/08/27 00:51:23;;;;;;;26.73;8.07;;;;;;;;;;10309478;28;20077;-66
2022/08/27 00:56:25;;;;;;;42.88;7.38;;;;;;;;;;10307978;28;20223;-66
2022/08/27 01:01:25;;;;;;;31.80;8.40;;;;;;;;;;10306297;28;20044;-66
2022/08/27 01:06:25;;;;;;;34.15;7.13;;;;;;;;;;10306113;28;20051;-65
2022/08/27 01:11:25;;;;;;;30.00;8.05;;;;;;;;;;10307418;28;20033;-65
2022/08/27 01:16:23;;;;;;;27.88;8.13;;;;;;;;;;10291953;28;20520;-65
2022/08/27 01:21:25;;;;;;;38.30;7.95;;;;;;;;;;10304397;28;20423;-65
2022/08/27 01:26:25;;;;;;;31.05;6.95;;;;;;;;;;10304615;28;20083;-67
2022/08/27 01:31:24;;;;;;;29.85;8.43;;;;;;;;;;10288084;28;20044;-67
2022/08/27 01:36:22;;;;;;;27.23;7.82;;;;;;;;;;10305935;28;20072;-67
2022/08/27 01:41:21;;;;;;;28.52;7.70;;;;;;;;;;10304593;28;20064;-67
2022/08/27 01:46:22;;;;;;;27.13;7.25;;;;;;;;;;10305245;28;20068;-67
2022/08/27 01:51:21;;;;;;;25.45;8.60;;;;;;;;;;10306810;28;20132;-67
2022/08/27 01:56:19;;;;;;;26.67;7.95;;;;;;;;;;10303541;28;20115;-67
2022/08/27 02:01:18;;;;;;;28.42;7.45;;;;;;;;;;10304233;28;20073;-67
2022/08/27 02:06:18;;;;;;;35.10;8.60;;;;;;;;;;10304375;28;20083;-67
2022/08/27 02:11:16;;;;;;;29.48;8.43;;;;;;;;;;10302826;28;20075;-67
2022/08/27 02:16:15;;;;;;;34.50;9.35;;;;;;;;;;10302620;28;20065;-67
2022/08/27 02:21:14;;;;;;;31.38;9.68;;;;;;;;;;10303351;28;20060;-67
2022/08/27 02:26:13;;;;;;;30.25;9.43;;;;;;;;;;10302370;28;20074;-67
2022/08/27 02:31:11;;;;;;;31.02;9.05;;;;;;;;;;10301951;28;20075;-67
2022/08/27 02:36:10;;;;;;;30.38;8.65;;;;;;;;;;10303172;28;20056;-66
2022/08/27 02:41:08;;;;;;;37.28;8.57;;;;;;;;;;10303627;28;20072;-67
2022/08/27 02:46:10;;;;;;;25.42;7.63;;;;;;;;;;10302967;28;20081;-67
2022/08/27 02:51:09;;;;;;;31.25;9.40;;;;;;;;;;10283074;28;20048;-67
2022/08/27 02:56:08;;;;;;;32.72;9.02;;;;;;;;;;10301619;28;20065;-67
2022/08/27 03:01:08;;;;;;;30.00;8.90;;;;;;;;;;10307258;28;20459;-66
2022/08/27 03:06:11;;;;;;;34.92;10.32;;;;;;;;;;10302019;28;20072;-66
2022/08/27 03:11:11;;;;;;;40.45;10.57;;;;;;;;;;10306830;28;20068;-67
2022/08/27 03:16:11;;;;;;;43.35;11.82;;;;;;;;;;10314199;28;20614;-67
2022/08/27 03:21:15;;;;;;;29.55;9.10;;;;;;;;;;10305979;28;20055;-66
2022/08/27 03:26:14;;;;;;;30.85;10.60;;;;;;;;;;10306289;28;20103;-67
2022/08/27 03:31:16;;;;;;;39.92;10.18;;;;;;;;;;10301859;28;20464;-67
2022/08/27 03:36:14;;;;;;;37.97;11.07;;;;;;;;;;10301909;28;20077;-68
2022/08/27 03:41:14;;;;;;;36.75;10.13;;;;;;;;;;10307370;28;20399;-68
2022/08/27 03:46:15;;;;;;;37.58;9.98;;;;;;;;;;10314348;28;20068;-67
2022/08/27 03:51:15;;;;;;;45.20;11.05;;;;;;;;;;10313508;28;20080;-67
2022/08/27 03:56:13;;;;;;;37.42;8.45;;;;;;;;;;10307583;28;20080;-67
2022/08/27 04:01:11;;;;;;;37.63;10.10;;;;;;;;;;10300802;28;20037;-68
2022/08/27 04:06:11;;;;;;;42.50;9.60;;;;;;;;;;10302023;28;20075;-67
2022/08/27 04:11:10;;;;;;;40.47;7.97;;;;;;;;;;10301474;28;20068;-68
2022/08/27 04:16:08;;;;;;;32.90;9.80;;;;;;;;;;10302217;28;20060;-68
2022/08/27 04:21:08;;;;;;;49.63;10.18;;;;;;;;;;10300498;28;20048;-68
2022/08/27 04:26:08;;;;;;;30.45;10.90;;;;;;;;;;10301622;28;20080;-67
2022/08/27 04:31:07;;;;;;;42.40;9.98;;;;;;;;;;10300002;28;20064;-67
2022/08/27 04:36:14;;;;;;;43.20;10.43;;;;;;;;;;10299879;28;20041;-67
2022/08/27 04:41:20;;;;;;;40.50;11.35;;;;;;;;;;10298405;28;20083;-67
2022/08/27 04:46:22;;;;;;;44.17;16.23;;;;;;;;;;10282863;28;20441;-68
2022/08/27 04:51:20;;;;;;;46.72;10.95;;;;;;;;;;10299600;28;20090;-68
2022/08/27 04:56:21;;;;;;;35.17;9.55;;;;;;;;;;10300008;28;20459;-68
2022/08/27 05:01:21;;;;;;;46.70;11.07;;;;;;;;;;10302915;28;20075;-66
2022/08/27 05:06:20;;;;;;;44.47;10.85;;;;;;;;;;10306038;28;20106;-67
2022/08/27 05:11:19;;;;;;;40.42;10.80;;;;;;;;;;10310902;28;20060;-67
2022/08/27 05:16:20;;;;;;;38.95;11.95;;;;;;;;;;10303661;28;20525;-67
2022/08/27 05:21:21;;;;;;;36.90;11.30;;;;;;;;;;10286664;28;20417;-67
2022/08/27 05:26:19;;;;;;;33.53;12.65;;;;;;;;;;10313150;28;20544;-66
2022/08/27 05:31:19;;;;;;;31.42;11.07;;;;;;;;;;10317909;28;20044;-67
2022/08/27 05:36:19;;;;;;;35.17;11.18;;;;;;;;;;10318553;28;20064;-67
2022/08/27 05:41:19;;;;;;;27.48;9.68;;;;;;;;;;10309984;28;20075;-67
2022/08/27 05:46:21;;;;;;;23.23;8.63;;;;;;;;;;10305226;28;20068;-67
2022/08/27 05:51:21;;;;;;;21.45;7.30;;;;;;;;;;10309456;28;20075;-67
2022/08/27 05:56:24;;;;;;;27.67;7.47;;;;;;;;;;10306967;28;20148;-67
2022/08/27 06:01:24;;;;;;;27.40;8.40;;;;;;;;;;10305206;28;20044;-67
2022/08/27 06:06:22;;;;;;;35.58;12.10;;;;;;;;;;10305382;28;20064;-67
2022/08/27 06:11:21;;;;;;;41.38;8.70;;;;;;;;;;10302715;28;20068;-67
2022/08/27 06:16:19;;;;;;;31.73;8.55;;;;;;;;;;10302978;28;20076;-68
2022/08/27 06:21:19;;;;;;;32.83;9.68;;;;;;;;;;10304761;28;20080;-67
2022/08/27 06:26:21;;;;;;;;;;;;;;;;;;10302321;28;20067;-67
2022/08/27 06:31:22;;;;;;;34.80;8.68;;;;;;;;;;10297997;28;19948;-67
2022/08/27 06:36:22;;;;;;;36.85;10.65;;;;;;;;;;10298743;28;20470;-68
2022/08/27 06:41:25;;;;;;;36.88;8.60;;;;;;;;;;10277556;28;20571;-67
2022/08/27 06:46:24;;;;;;;47.33;8.52;;;;;;;;;;10301760;28;20075;-67
2022/08/27 06:51:25;;;;;;;43.10;10.40;;;;;;;;;;10302394;28;20084;-67
2022/08/27 06:56:23;;;;;;;33.72;9.23;;;;;;;;;;10302038;28;20479;-68
2022/08/27 07:01:24;;;;;;;34.78;8.98;;;;;;;;;;10301933;28;20076;-67
2022/08/27 07:06:22;;;;;;;48.97;10.02;;;;;;;;;;10308262;28;20080;-67
2022/08/27 07:11:22;;;;;;;24.55;8.70;;;;;;;;;;10297595;28;20665;-67
2022/08/27 07:16:23;;;;;;;43.60;11.85;;;;;;;;;;10313525;28;20060;-68
2022/08/27 07:21:21;;;;;;;51.33;10.30;;;;;;;;;;10306538;28;20064;-67
2022/08/27 07:26:20;;;;;;;31.50;9.73;;;;;;;;;;10300790;28;20424;-68
2022/08/27 07:31:22;;;;;;;33.50;8.52;;;;;;;;;;10302171;28;20577;-67
2022/08/27 07:36:21;;;;;;;36.25;8.48;;;;;;;;;;10300671;28;20075;-68
2022/08/27 07:41:19;;;;;;;35.15;9.45;;;;;;;;;;10301337;28;20063;-67
2022/08/27 07:46:17;;;;;;;45.70;10.25;;;;;;;;;;10300744;28;20088;-67
2022/08/27 07:51:18;;;;;;;40.90;10.95;;;;;;;;;;10300668;28;20091;-68
2022/08/27 07:56:17;;;;;;;35.40;9.70;;;;;;;;;;10301255;28;20080;-67
2022/08/27 08:01:15;;;;;;;43.30;9.40;;;;;;;;;;10300526;28;20083;-67
2022/08/27 08:06:14;;;;;;;42.35;9.38;;;;;;;;;;10301453;28;20514;-67
2022/08/27 08:11:15;;;;;;;43.38;10.18;;;;;;;;;;10300205;28;20076;-67
2022/08/27 08:16:14;;;;;;;51.45;10.10;;;;;;;;;;10300157;28;20514;-67
2022/08/27 08:21:13;;;;;;;36.65;10.02;;;;;;;;;;10299699;28;20742;-67
2022/08/27 08:26:12;;;;;;;36.03;10.75;;;;;;;;;;10300012;28;20061;-67
2022/08/27 08:31:12;;;;;;;39.47;7.82;;;;;;;;;;10299346;28;20451;-67
2022/08/27 08:36:11;;;;;;;40.08;9.23;;;;;;;;;;10307860;28;20087;-67
2022/08/27 08:41:23;;;;;;;35.47;9.15;;;;;;;;;;10308560;28;20068;-67
2022/08/27 08:46:27;;;;;;;31.25;8.82;;;;;;;;;;10307166;28;20098;-67
2022/08/27 08:51:30;;;;;;;47.50;9.93;;;;;;;;;;10309703;28;20084;-67
2022/08/27 08:56:30;;;;;;;31.43;8.97;;;;;;;;;;10302577;28;20072;-67
2022/08/27 09:01:30;;;;;;;28.13;8.40;;;;;;;;;;10305689;28;20080;-67
2022/08/27 09:06:36;;;;;;;43.42;9.55;;;;;;;;;;10305323;28;20068;-66
2022/08/27 09:11:39;;;;;;;37.35;9.25;;;;;;;;;;10305198;28;20085;-67
2022/08/27 09:16:39;;;;;;;54.45;10.50;;;;;;;;;;10306553;28;20513;-67
2022/08/27 09:21:47;;;;;;;38.53;9.35;;;;;;;;;;10304608;28;20056;-67
2022/08/27 09:26:45;;;;;;;46.92;9.77;;;;;;;;;;10302058;28;20516;-68
2022/08/27 09:31:46;;;;;;;34.03;8.02;;;;;;;;;;10301954;28;20065;-68
2022/08/27 09:36:52;;;;;;;45.55;11.07;;;;;;;;;;10302127;28;20075;-67
2022/08/27 09:41:50;;;;;;;44.38;10.68;;;;;;;;;;10302109;28;20131;-67
2022/08/27 09:46:55;;;;;;;34.60;7.55;;;;;;;;;;10303047;28;20080;-67
2022/08/27 09:51:53;;;;;;;46.00;11.02;;;;;;;;;;10304296;28;20812;-68
2022/08/27 09:56:52;;;;;;;41.20;9.18;;;;;;;;;;10304334;28;20514;-67
2022/08/27 10:01:52;;;;;;;38.80;8.00;;;;;;;;;;10307069;28;20072;-67
2022/08/27 10:06:52;;;;;;;39.83;9.00;;;;;;;;;;10301849;28;20076;-67
2022/08/27 10:11:57;;;;;;;45.53;9.05;;;;;;;;;;10287079;28;20073;-67
2022/08/27 10:17:00;;;;;;;36.22;9.00;;;;;;;;;;10304354;28;20083;-67
2022/08/27 10:22:04;;;;;;;39.28;8.75;;;;;;;;;;10302473;28;20371;-67
2022/08/27 10:27:09;;;;;;;48.85;7.95;;;;;;;;;;10303350;28;20061;-67
2022/08/27 10:32:12;;;;;;;29.57;7.80;;;;;;;;;;10302541;28;20088;-67
2022/08/27 10:37:20;;;;;;;30.90;7.75;;;;;;;;;;10302789;28;20071;-67
2022/08/27 10:42:25;;;;;;;31.15;7.43;;;;;;;;;;10303253;28;20071;-69
2022/08/27 10:47:27;;;;;;;41.33;8.38;;;;;;;;;;10302219;28;20083;-68
2022/08/27 10:52:29;;;;;;;44.27;10.73;;;;;;;;;;10302343;28;20080;-67
2022/08/27 10:57:35;;;;;;;39.92;10.30;;;;;;;;;;10302026;28;20079;-68
2022/08/27 11:02:55;;;;;;;38.33;9.35;;;;;;;;;;10297569;28;20081;-68
2022/08/27 11:07:56;;;;;;;38.22;8.45;;;;;;;;;;10300614;28;20084;-68
2022/08/27 11:12:58;;;;;;;40.78;9.40;;;;;;;;;;10301164;28;20091;-68
2022/08/27 11:17:59;;;;;;;53.65;8.32;;;;;;;;;;10300444;28;20068;-67
2022/08/27 11:23:01;;;;;;;40.45;10.10;;;;;;;;;;10300812;28;20067;-67
2022/08/27 11:28:00;;;;;;;41.38;9.65;;;;;;;;;;10299925;28;20072;-67
2022/08/27 11:33:02;;;;;;;49.05;9.80;;;;;;;;;;10282361;28;20423;-65
2022/08/27 11:38:19;;;;;;;44.78;10.45;;;;;;;;;;10314966;28;20091;-66
2022/08/27 11:43:18;;;;;;;54.08;11.73;;;;;;;;;;10305043;28;20052;-67
2022/08/27 11:48:18;;;;;;;49.83;10.85;;;;;;;;;;10305726;28;20080;-67
2022/08/27 11:53:23;;;;;;;38.35;9.00;;;;;;;;;;10299995;28;20040;-66
2022/08/27 11:58:27;;;;;;;61.15;10.50;;;;;;;;;;10297150;28;20072;-66
2022/08/27 12:03:28;;;;;;;46.47;8.32;;;;;;;;;;10298985;28;20417;-66
2022/08/27 12:08:30;;;;;;;53.20;10.77;;;;;;;;;;10299291;28;20068;-67
2022/08/27 12:13:34;;;;;;;35.53;9.50;;;;;;;;;;10307109;28;20525;-67
2022/08/27 12:18:41;;;;;;;50.53;9.73;;;;;;;;;;10308920;28;20576;-68
2022/08/27 12:23:49;;;;;;;48.38;10.35;;;;;;;;;;10308376;28;20512;-67
2022/08/27 12:28:48;;;;;;;46.10;10.38;;;;;;;;;;10307203;28;20079;-67
2022/08/27 12:33:47;;;;;;;58.58;9.93;;;;;;;;;;10305011;28;20064;-67
2022/08/27 12:38:48;;;;;;;41.08;8.43;;;;;;;;;;10320951;28;20501;-68
2022/08/27 12:43:47;;;;;;;45.85;10.23;;;;;;;;;;10320422;28;20045;-68
2022/08/27 12:48:47;;;;;;;58.85;11.00;;;;;;;;;;10312076;28;20529;-68
2022/08/27 12:53:49;;;;;;;42.55;8.75;;;;;;;;;;10307254;28;20072;-68
2022/08/27 12:58:52;;;;;;;45.95;9.10;;;;;;;;;;10306038;28;20072;-67
2022/08/27 13:03:53;;;;;;;45.97;10.07;;;;;;;;;;10303084;28;20068;-68
2022/08/27 13:08:55;;;;;;;48.95;8.98;;;;;;;;;;10306309;28;20075;-68
2022/08/27 13:14:04;;;;;;;54.97;8.60;;;;;;;;;;10307362;28;20072;-67
2022/08/27 13:19:02;;;;;;;57.67;9.05;;;;;;;;;;10305709;28;20509;-67
2022/08/27 13:24:03;;;;;;;50.38;9.10;;;;;;;;;;10306631;28;20090;-67
2022/08/27 13:29:02;;;;;;;49.95;9.15;;;;;;;;;;10306456;28;20067;-68
2022/08/27 13:34:03;;;;;;;60.35;10.25;;;;;;;;;;10306110;28;20060;-68
2022/08/27 13:39:06;;;;;;;36.53;8.70;;;;;;;;;;10305337;28;20072;-68
2022/08/27 13:44:09;;;;;;;57.92;10.93;;;;;;;;;;10305462;28;20075;-69
2022/08/27 13:49:14;;;;;;;50.92;9.73;;;;;;;;;;10304265;28;20095;-68
2022/08/27 13:54:14;;;;;;;51.90;10.55;;;;;;;;;;10303388;28;20076;-68
2022/08/27 13:59:14;;;;;;;50.75;10.88;;;;;;;;;;10304831;28;20068;-68
2022/08/27 14:04:21;;;;;;;52.72;9.70;;;;;;;;;;10304392;28;20482;-68
2022/08/27 14:09:24;;;;;;;52.70;10.60;;;;;;;;;;10298368;28;20079;-68
2022/08/27 14:14:22;;;;;;;58.58;12.93;;;;;;;;;;10298723;28;20076;-68
2022/08/27 14:19:25;;;;;;;51.17;10.38;;;;;;;;;;10304197;28;20083;-69
2022/08/27 14:24:24;;;;;;;57.55;11.68;;;;;;;;;;10303111;28;20485;-68
2022/08/27 14:29:23;;;;;;;41.05;9.48;;;;;;;;;;10302317;28;20079;-67
2022/08/27 14:34:21;;;;;;;47.38;9.80;;;;;;;;;;10301745;28;20071;-67
2022/08/27 14:39:19;;;;;;;43.25;10.05;;;;;;;;;;10297073;28;20064;-67
2022/08/27 14:44:26;;;;;;;44.22;8.10;;;;;;;;;;10297902;28;20052;-67
2022/08/27 14:49:26;;;;;;;50.47;10.02;;;;;;;;;;10300866;28;20092;-68
2022/08/27 14:54:25;;;;;;;53.40;11.38;;;;;;;;;;10301558;28;20041;-67
2022/08/27 14:59:31;;;;;;;50.92;11.40;;;;;;;;;;10301186;28;20092;-67
2022/08/27 15:04:30;;;;;;;45.58;14.65;;;;;;;;;;10302339;28;20065;-68
2022/08/27 15:09:29;;;;;;;52.85;11.15;;;;;;;;;;10302918;28;20068;-67
2022/08/27 15:14:30;;;;;;;57.97;14.00;;;;;;;;;;10300370;28;20306;-67
2022/08/27 15:19:30;;;;;;;48.53;10.48;;;;;;;;;;10301544;28;20075;-67
2022/08/27 15:24:31;;;;;;;55.25;11.18;;;;;;;;;;10300114;28;20460;-67
2022/08/27 15:29:29;;;;;;;46.53;9.65;;;;;;;;;;10301558;28;20072;-67
2022/08/27 15:34:28;;;;;;;48.78;9.68;;;;;;;;;;10301652;28;20517;-68
2022/08/27 15:39:27;;;;;;;40.63;10.20;;;;;;;;;;10300439;28;20083;-68
2022/08/27 15:44:28;;;;;;;49.13;11.45;;;;;;;;;;10300371;28;20076;-68
2022/08/27 15:49:27;;;;;;;55.85;14.23;;;;;;;;;;10300046;28;20076;-68
2022/08/27 15:54:25;;;;;;;55.15;16.75;;;;;;;;;;10300163;28;20040;-68
2022/08/27 15:59:24;;;;;;;45.63;12.15;;;;;;;;;;10300107;28;20051;-68
2022/08/27 16:04:23;;;;;;;40.22;10.93;;;;;;;;;;10300129;28;20064;-67
2022/08/27 16:09:21;;;;;;;45.17;11.63;;;;;;;;;;10299653;28;20079;-66
2022/08/27 16:14:20;;;;;;;49.25;11.60;;;;;;;;;;10300388;28;20067;-66
2022/08/27 16:19:19;;;;;;;47.38;10.30;;;;;;;;;;10294389;28;20476;-67
2022/08/27 16:24:18;;;;;;;40.80;9.30;;;;;;;;;;10293019;28;20044;-68
2022/08/27 16:29:16;;;;;;;47.08;12.18;;;;;;;;;;10293034;28;20543;-67
2022/08/27 16:34:16;;;;;;;55.92;16.70;;;;;;;;;;10310567;28;20072;-65
2022/08/27 16:39:16;;;;;;;57.78;17.98;;;;;;;;;;10295086;28;20068;-66
2022/08/27 16:44:14;;;;;;;39.78;11.65;;;;;;;;;;10313849;28;20075;-66
2022/08/27 16:54:30;;;;;;;46.22;14.85;;;;;;;;;;10308049;28;20043;-66
2022/08/27 16:59:28;;;;;;;49.75;16.48;;;;;;;;;;10318791;28;20074;-66
2022/08/27 17:04:27;;;;;;;53.78;14.77;;;;;;;;;;10320442;28;20048;-66
2022/08/27 17:09:39;;;;;;;45.53;14.90;;;;;;;;;;10304718;28;20080;-66
2022/08/27 17:14:37;;;;;;;47.55;15.57;;;;;;;;;;10305750;28;20083;-66
2022/08/27 17:19:35;;;;;;;48.90;16.23;;;;;;;;;;10306143;28;20080;-65
2022/08/27 17:24:34;;;;;;;57.72;13.13;;;;;;;;;;10306461;28;20064;-65
2022/08/27 17:29:33;;;;;;;46.50;14.05;;;;;;;;;;10305695;28;20068;-65
2022/08/27 17:34:32;;;;;;;48.33;12.88;;;;;;;;;;10304495;28;20056;-65
2022/08/27 17:39:30;;;;;;;53.13;12.90;;;;;;;;;;10303991;28;20056;-65
2022/08/27 17:44:30;;;;;;;60.33;12.13;;;;;;;;;;10304559;28;20075;-65
2022/08/27 17:49:30;;;;;;;55.08;15.27;;;;;;;;;;10304603;28;20079;-65
2022/08/27 17:54:31;;;;;;;56.92;14.55;;;;;;;;;;10304790;28;20078;-65
2022/08/27 17:59:29;;;;;;;47.97;15.98;;;;;;;;;;10304066;28;20044;-66
2022/08/27 18:04:27;;;;;;;52.17;18.25;;;;;;;;;;10294042;28;20072;-67
2022/08/27 18:09:27;;;;;;;44.95;14.57;;;;;;;;;;10281546;28;20087;-65
2022/08/27 18:14:25;;;;;;;54.53;19.85;;;;;;;;;;10301151;28;20087;-66
2022/08/27 18:19:23;;;;;;;49.13;17.13;;;;;;;;;;10301280;28;20083;-66
2022/08/27 18:24:22;;;;;;;43.67;11.55;;;;;;;;;;10302288;28;20072;-66
2022/08/27 18:29:21;;;;;;;69.40;12.10;;;;;;;;;;10302223;28;20098;-65
2022/08/27 18:34:20;;;;;;;49.20;11.90;;;;;;;;;;10297704;28;20079;-66
2022/08/27 18:39:18;;;;;;;55.47;11.93;;;;;;;;;;10296005;28;20076;-65
2022/08/27 18:44:17;;;;;;;48.10;13.75;;;;;;;;;;10316087;28;20071;-65
2022/08/27 18:49:18;;;;;;;46.10;12.73;;;;;;;;;;10315155;28;20502;-66
2022/08/27 18:54:16;;;;;;;50.42;11.18;;;;;;;;;;10315880;28;20517;-66
2022/08/27 18:59:15;;;;;;;48.40;12.82;;;;;;;;;;10301345;28;20083;-63
2022/08/27 19:04:15;;;;;;;54.20;12.15;;;;;;;;;;10301063;28;20498;-67
2022/08/27 19:09:15;;;;;;;52.72;14.02;;;;;;;;;;10301188;28;20080;-65
2022/08/27 19:14:13;;;;;;;49.97;11.65;;;;;;;;;;10300194;28;20068;-65
2022/08/27 19:19:12;;;;;;;54.78;12.13;;;;;;;;;;10301551;28;20059;-65
2022/08/27 19:24:11;;;;;;;51.25;12.23;;;;;;;;;;10310484;28;20064;-65
2022/08/27 19:29:10;;;;;;;53.15;11.35;;;;;;;;;;10306523;28;20604;-64
2022/08/27 19:34:09;;;;;;;42.13;9.00;;;;;;;;;;10308487;28;20072;-64
2022/08/27 19:39:08;;;;;;;55.63;10.38;;;;;;;;;;10292520;28;20493;-66
2022/08/27 19:44:07;;;;;;;43.95;10.75;;;;;;;;;;10287694;28;20060;-66
2022/08/27 19:49:06;;;;;;;46.03;9.50;;;;;;;;;;10295818;28;20460;-64
2022/08/27 19:54:05;;;;;;;52.88;10.60;;;;;;;;;;10296623;28;20510;-64
2022/08/27 19:59:03;;;;;;;52.60;11.02;;;;;;;;;;10293681;28;20455;-64
2022/08/27 20:04:17;;;;;;;;;;;;;;;;;;10302225;28;20418;-66
2022/08/27 20:09:19;;;;;;;51.75;10.00;;;;;;;;;;10297416;28;19963;-66
2022/08/27 20:14:18;;;;;;;50.25;10.60;;;;;;;;;;10292995;28;20041;-64
2022/08/27 20:19:17;;;;;;;58.88;12.07;;;;;;;;;;10293265;28;20071;-66
2022/08/27 20:24:17;;;;;;;61.35;12.25;;;;;;;;;;10281247;28;20071;-66
2022/08/27 20:29:15;;;;;;;56.20;11.98;;;;;;;;;;10296580;28;20076;-65
2022/08/27 20:34:31;;;;;;;58.55;11.77;;;;;;;;;;10298578;28;20087;-65
2022/08/27 20:39:31;;;;;;;46.55;9.73;;;;;;;;;;10304006;28;20083;-66
2022/08/27 20:44:30;;;;;;;43.33;11.27;;;;;;;;;;10307813;28;20056;-66
2022/08/27 20:49:29;;;;;;;53.72;12.48;;;;;;;;;;10306101;28;20099;-66
2022/08/27 20:54:27;;;;;;;52.55;10.15;;;;;;;;;;10306890;28;20068;-66
2022/08/27 21:04:44;;;;;;;63.22;10.73;;;;;;;;;;10306979;28;20068;-66
2022/08/27 21:09:43;;;;;;;52.97;9.40;;;;;;;;;;10306892;28;20433;-66
2022/08/27 21:14:55;;;;;;;35.90;9.38;;;;;;;;;;10319691;28;20044;-66
2022/08/27 21:19:55;;;;;;;63.15;11.90;;;;;;;;;;10317906;28;20075;-66
2022/08/27 21:24:53;;;;;;;62.78;9.57;;;;;;;;;;10316301;28;20049;-66
2022/08/27 21:29:52;;;;;;;54.47;9.55;;;;;;;;;;10302213;28;20079;-65
2022/08/27 21:34:51;;;;;;;55.03;11.18;;;;;;;;;;10302881;28;20447;-66
2022/08/27 21:39:50;;;;;;;55.85;8.77;;;;;;;;;;10319129;28;20044;-66
2022/08/27 21:44:48;;;;;;;43.95;9.25;;;;;;;;;;10316085;28;20060;-66
2022/08/27 21:49:46;;;;;;;51.33;10.68;;;;;;;;;;10306568;28;20152;-66
2022/08/27 21:54:46;;;;;;;53.20;8.88;;;;;;;;;;10300843;28;20068;-66
2022/08/27 21:59:45;;;;;;;45.58;8.75;;;;;;;;;;10305320;28;20072;-66
2022/08/27 22:04:43;;;;;;;69.32;10.93;;;;;;;;;;10303786;28;20064;-66
2022/08/27 22:09:41;;;;;;;45.45;9.93;;;;;;;;;;10304891;28;20514;-65
2022/08/27 22:14:41;;;;;;;53.40;10.68;;;;;;;;;;10305336;28;20068;-66
2022/08/27 22:19:39;;;;;;;47.17;10.05;;;;;;;;;;10303326;28;20210;-66
2022/08/27 22:24:38;;;;;;;34.65;8.88;;;;;;;;;;10301470;28;20079;-66
2022/08/27 22:29:36;;;;;;;46.90;9.45;;;;;;;;;;10303504;28;20068;-65
2022/08/27 22:34:36;;;;;;;56.13;9.30;;;;;;;;;;10301594;28;20044;-65
2022/08/27 22:39:35;;;;;;;56.60;9.38;;;;;;;;;;10301754;28;20060;-65
2022/08/27 22:44:35;;;;;;;42.72;8.63;;;;;;;;;;10302408;28;20083;-66
2022/08/27 22:49:33;;;;;;;58.83;10.60;;;;;;;;;;10297898;28;20076;-66
2022/08/27 22:54:33;;;;;;;46.15;9.88;;;;;;;;;;10297355;28;20091;-65
2022/08/27 22:59:31;;;;;;;43.40;9.10;;;;;;;;;;10278871;28;20075;-66
2022/08/27 23:04:32;;;;;;;59.28;10.20;;;;;;;;;;10316144;28;20040;-65
2022/08/27 23:09:51;;;;;;;40.08;8.68;;;;;;;;;;10315414;28;20053;-65
2022/08/27 23:14:50;;;;;;;43.60;9.55;;;;;;;;;;10314814;28;20068;-65
2022/08/27 23:19:48;;;;;;;45.92;10.05;;;;;;;;;;10298928;28;20538;-65
2022/08/27 23:30:04;;;;;;;52.65;10.98;;;;;;;;;;10300678;28;20080;-65
2022/08/27 23:35:02;;;;;;;49.80;9.77;;;;;;;;;;10302013;28;20072;-66
2022/08/27 23:40:02;;;;;;;50.05;10.10;;;;;;;;;;10283342;28;20349;-65
2022/08/27 23:45:01;;;;;;;51.05;8.90;;;;;;;;;;10299124;28;20478;-65
2022/08/27 23:50:00;;;;;;;35.88;10.00;;;;;;;;;;10301315;28;20072;-65
2022/08/27 23:54:59;;;;;;;47.15;9.60;;;;;;;;;;10300194;28;20045;-65
2022/08/27 23:59:57;;;;;;;48.13;9.55;;;;;;;;;;10300589;28;20426;-65
